Terminal Aerodrome Forecast
Issued by NWS

Home | Current Version | Previous Version | Text Only | Print | Product List | Glossary On
Versions: 1 2 3 4 5 6 7 8 9 10 11 12 13 14 15 16 17 18 19 20
000
FTUS44 KHGX 240639 AAA
TAFCXO
TAF AMD
KCXO 240639Z 2407/2506 14005KT P6SM BKN017
     FM241000 18006KT 6SM BR BKN007
     FM241400 19009KT P6SM BKN015
     FM241800 18011KT P6SM SCT050
     FM242300 18007KT P6SM VCSH BKN050=

USA.gov is the U.S. government's official web portal to all federal, state and local government web resources and services.